Latest Weather Observations for Gympie

IDQ60901

Issued at 3:31 pm EST Thursday 2 July 2015 (issued every 10 minutes, with the page automatically refreshed every 10 minutes)

About weather observations | Map of Brisbane area stations | Latest observations for Brisbane area | Other Formats
Station Details ID: 040093 Name: GYMPIE Lat: -26.18 Lon: 152.64 Height: 64.5 m
Data from the previous 72 hours. | See also: Recent months at Gympie
Date/Time
EST
Tmp

°C
App
Tmp
°C
Dew
Point
°C
Rel
Hum
%
Delta-T

°C
Wind Press
QNH
hPa
Press
MSL
hPa
Rain
since
9 am
mm
Dir
 
Spd
km/h
Gust
km/h
Spd
kts
Gust
kts
02/03:30pm 20.2 17.0 5.1 37 7.4 SW 11 19 6 10 1018.4 1018.4 0.0
02/03:00pm 20.4 16.7 4.4 35 7.7 WSW 13 24 7 13 1018.4 1018.4 0.0
02/02:30pm 20.1 16.7 6.1 40 7.0 SW 13 22 7 12 1018.3 1018.3 0.0
02/02:00pm 20.7 18.1 7.7 43 6.7 W 11 17 6 9 1018.3 1018.3 0.0
02/01:30pm 20.1 18.0 8.1 46 6.2 W 9 17 5 9 1018.8 1018.8 0.0
02/01:00pm 19.9 17.3 7.6 45 6.3 W 11 19 6 10 1019.3 1019.3 0.0
02/12:30pm 19.6 16.5 7.4 45 6.2 W 13 24 7 13 1019.8 1019.8 0.0
02/12:00pm 20.0 18.7 9.3 50 5.7 W 6 11 3 6 1020.1 1020.1 0.0
02/11:30am 19.1 17.5 8.7 51 5.4 SW 7 13 4 7 1021.1 1021.1 0.0
02/11:00am 18.4 17.4 10.3 59 4.3 WSW 6 13 3 7 1021.6 1021.6 0.0
02/10:30am 17.1 16.0 10.0 63 3.8 W 6 9 3 5 1022.2 1022.2 0.0
02/10:00am 15.8 14.6 9.7 67 3.2 W 6 7 3 4 1022.8 1022.8 0.0
02/09:30am 14.5 13.7 9.5 72 2.6 W 4 6 2 3 1023.1 1023.0 0.0
02/09:00am 12.9 12.9 11.0 88 1.0 NW 2 4 1 2 1022.7 1022.7 0.0
02/08:30am 10.7 10.9 10.4 98 0.2 CALM 0 4 0 2 1022.5 1022.5 0.0
02/08:00am 8.4 8.0 8.3 99 0.0 CALM 0 0 0 0 1022.4 1022.4 0.0
02/07:30am 6.9 6.2 6.8 99 0.0 CALM 0 0 0 0 1022.1 1022.1 0.0
02/07:00am 5.5 4.5 5.4 99 0.0 CALM 0 2 0 1 1021.8 1021.8 0.0
02/06:30am 5.5 4.5 5.4 99 0.0 CALM 0 2 0 1 1021.5 1021.5 0.0
02/06:00am 5.2 4.1 5.1 99 0.0 CALM 0 2 0 1 1021.4 1021.4 0.0
02/05:30am 5.9 4.9 5.8 99 0.0 CALM 0 0 0 0 1021.1 1021.1 0.0
02/05:00am 6.5 5.3 6.4 99 0.0 WSW 2 4 1 2 1021.4 1021.4 0.0
02/04:30am 6.4 5.6 6.3 99 0.0 CALM 0 0 0 0 1020.8 1020.8 0.0
02/04:00am 6.8 6.0 6.5 98 0.1 CALM 0 0 0 0 1021.2 1021.2 0.0
02/03:30am 7.0 5.9 6.7 98 0.1 W 2 2 1 1 1021.5 1021.5 0.0
02/03:00am 7.2 6.5 6.9 98 0.1 CALM 0 0 0 0 1021.3 1021.3 0.0
02/02:30am 8.2 7.8 8.1 99 0.0 CALM 0 0 0 0 1021.5 1021.5 0.0
02/02:00am 8.4 7.6 8.3 99 0.0 N 2 6 1 3 1021.7 1021.7 0.0
02/01:30am 8.0 7.4 7.6 97 0.2 CALM 0 0 0 0 1021.6 1021.6 0.0
02/01:00am 9.1 8.9 9.0 99 0.0 CALM 0 0 0 0 1021.9 1021.9 0.0
02/12:30am 9.1 8.8 8.8 98 0.1 CALM 0 0 0 0 1022.1 1022.1 0.0
02/12:00am 9.6 9.5 9.3 98 0.1 CALM 0 0 0 0 1022.4 1022.4 0.0
 
Date/Time
EST
Tmp

°C
App
Tmp
°C
Dew
Point
°C
Rel
Hum
%
Delta-T

°C
Wind Press
QNH
hPa
Press
MSL
hPa
Rain
since
9 am
mm
Dir
 
Spd
km/h
Gust
km/h
Spd
kts
Gust
kts
01/11:30pm 9.9 9.5 9.6 98 0.1 N 2 4 1 2 1022.5 1022.5 0.0
01/11:00pm 11.1 10.6 10.9 99 0.1 NNE 4 6 2 3 1022.6 1022.6 0.0
01/10:30pm 11.4 11.0 11.2 99 0.1 N 4 6 2 3 1022.7 1022.7 0.0
01/10:00pm 11.8 12.3 11.5 98 0.2 CALM 0 2 0 1 1022.8 1022.8 0.0
01/09:30pm 11.2 11.4 10.4 95 0.4 CALM 0 0 0 0 1022.8 1022.8 0.0
01/09:00pm 12.8 13.4 12.0 95 0.4 CALM 0 0 0 0 1022.8 1022.8 0.0
01/08:30pm 13.3 14.1 12.4 94 0.5 CALM 0 0 0 0 1022.8 1022.8 0.0
01/08:00pm 13.7 14.5 12.6 93 0.6 CALM 0 4 0 2 1022.6 1022.6 0.0
01/07:30pm 14.7 15.8 13.6 93 0.6 CALM 0 4 0 2 1022.1 1022.1 0.0
01/07:00pm 15.5 16.8 14.0 91 0.8 CALM 0 0 0 0 1021.8 1021.8 0.0
01/06:30pm 16.2 17.5 14.0 87 1.2 CALM 0 0 0 0 1021.5 1021.5 0.0
01/06:00pm 16.9 18.2 14.2 84 1.5 CALM 0 0 0 0 1021.3 1021.3 0.0
01/05:30pm 18.4 19.4 14.3 77 2.4 E 2 4 1 2 1021.2 1021.2 0.0
01/05:00pm 19.6 19.7 14.0 70 3.2 ESE 6 7 3 4 1021.0 1021.0 0.0
01/04:30pm 20.6 21.5 14.0 66 3.8 SSE 2 4 1 2 1020.7 1020.7 0.0
01/04:00pm 20.8 21.6 14.7 68 3.6 SSE 4 6 2 3 1020.5 1020.5 0.0
01/03:30pm 20.9 21.1 14.1 65 4.0 SE 6 7 3 4 1020.4 1020.4 0.0
01/03:00pm 22.0 21.4 13.4 58 5.0 SE 9 17 5 9 1020.3 1020.3 0.0
01/02:30pm 23.3 23.1 12.9 52 6.0 ESE 6 9 3 5 1020.4 1020.4 0.0
01/02:00pm 23.1 23.1 13.6 55 5.5 S 6 11 3 6 1020.7 1020.7 0.0
01/01:30pm 23.1 23.8 13.3 54 5.7 W 2 4 1 2 1021.0 1021.0 0.0
01/01:00pm 23.1 23.9 14.7 59 5.0 NNW 4 6 2 3 1021.2 1021.2 0.0
01/12:30pm 22.2 22.5 13.3 57 5.1 S 4 6 2 3 1021.8 1021.8 0.0
01/12:00pm 22.6 23.4 13.7 57 5.2 N 2 6 1 3 1022.4 1022.4 0.0
01/11:30am 21.8 22.8 14.2 62 4.4 NNW 2 6 1 3 1023.1 1023.0 0.0
01/11:00am 20.6 21.4 13.8 65 3.9 S 2 6 1 3 1023.7 1023.6 0.0
01/10:30am 19.7 20.8 14.7 73 2.9 SW 2 4 1 2 1024.2 1024.1 0.0
01/10:00am 17.7 19.0 15.1 85 1.5 SSE 2 4 1 2 1024.4 1024.3 0.0
01/09:30am 15.9 17.4 14.6 92 0.7 CALM 0 0 0 0 1024.8 1024.7 0.0
01/09:00am 13.6 14.6 13.1 97 0.3 CALM 0 0 0 0 1024.9 1024.8 0.0
01/08:30am 13.2 14.1 12.9 98 0.2 CALM 0 0 0 0 1024.8 1024.7 0.0
01/08:00am 12.2 12.8 12.0 99 0.1 CALM 0 0 0 0 1024.7 1024.6 0.0
01/07:30am 11.0 11.2 10.7 98 0.2 CALM 0 0 0 0 1024.5 1024.4 0.0
01/07:00am 10.8 11.0 10.5 98 0.2 CALM 0 0 0 0 1024.2 1024.1 0.0
01/06:30am 11.2 11.5 10.9 98 0.2 CALM 0 0 0 0 1023.9 1023.8 0.0
01/06:00am 11.5 11.9 11.2 98 0.2 CALM 0 0 0 0 1023.7 1023.6 0.0
01/05:30am 12.2 12.8 11.9 98 0.2 CALM 0 0 0 0 1023.5 1023.4 0.0
01/05:00am 12.4 13.1 12.2 99 0.1 CALM 0 0 0 0 1023.5 1023.4 0.0
01/04:30am 12.5 13.2 12.2 98 0.2 CALM 0 0 0 0 1023.6 1023.5 0.0
01/04:00am 12.6 13.3 12.3 98 0.2 CALM 0 0 0 0 1023.5 1023.4 0.0
01/03:30am 12.8 13.6 12.5 98 0.2 CALM 0 0 0 0 1023.5 1023.4 0.0
01/03:00am 13.2 14.1 12.9 98 0.2 CALM 0 0 0 0 1023.5 1023.4 0.0
01/02:30am 13.3 14.2 13.0 98 0.2 CALM 0 0 0 0 1023.6 1023.5 0.0
01/02:00am 13.3 14.2 12.8 97 0.3 CALM 0 0 0 0 1024.0 1023.9 0.0
01/01:30am 13.4 14.4 13.1 98 0.2 CALM 0 0 0 0 1024.3 1024.2 0.0
01/01:00am 13.3 14.2 12.8 97 0.3 CALM 0 0 0 0 1024.5 1024.4 0.0
01/12:30am 13.4 14.3 12.8 96 0.3 CALM 0 0 0 0 1024.7 1024.6 0.0
01/12:00am 13.7 14.7 13.1 96 0.3 CALM 0 0 0 0 1025.1 1025.0 0.0
 
Date/Time
EST
Tmp

°C
App
Tmp
°C
Dew
Point
°C
Rel
Hum
%
Delta-T

°C
Wind Press
QNH
hPa
Press
MSL
hPa
Rain
since
9 am
mm
Dir
 
Spd
km/h
Gust
km/h
Spd
kts
Gust
kts
30/11:30pm 14.2 15.3 13.4 95 0.4 CALM 0 0 0 0 1025.2 1025.1 0.0
30/11:00pm 14.5 15.7 13.7 95 0.4 CALM 0 0 0 0 1025.3 1025.2 0.0
30/10:30pm 14.9 16.1 13.9 94 0.6 CALM 0 0 0 0 1025.6 1025.5 0.0
30/10:00pm 14.9 16.1 13.8 93 0.6 CALM 0 0 0 0 1025.7 1025.6 0.0
30/09:30pm 15.3 16.6 14.0 92 0.7 CALM 0 0 0 0 1025.6 1025.5 0.0
30/09:00pm 15.3 16.6 14.0 92 0.7 CALM 0 0 0 0 1025.6 1025.5 0.0
30/08:30pm 15.1 16.3 13.8 92 0.7 CALM 0 0 0 0 1025.3 1025.2 0.0
30/08:00pm 15.8 17.1 14.0 89 1.0 CALM 0 2 0 1 1025.0 1024.9 0.0
30/07:30pm 16.2 17.5 14.0 87 1.2 CALM 0 0 0 0 1024.8 1024.7 0.0
30/07:00pm 16.4 17.2 13.7 84 1.5 W 2 4 1 2 1024.6 1024.5 0.0
30/06:30pm 17.0 18.2 13.9 82 1.8 CALM 0 0 0 0 1024.3 1024.2 0.0
30/06:00pm 17.8 18.6 13.7 77 2.3 E 2 4 1 2 1024.1 1024.0 0.0
30/05:30pm 18.3 19.4 13.6 74 2.7 CALM 0 2 0 1 1024.2 1024.1 0.0
30/05:00pm 18.9 19.1 12.9 68 3.4 SE 4 6 2 3 1023.9 1023.8 0.0
30/04:30pm 20.1 19.8 12.6 62 4.2 ESE 6 7 3 4 1023.8 1023.7 0.0
30/04:00pm 21.4 20.9 12.5 57 5.0 SE 7 11 4 6 1023.7 1023.6 0.0
30/03:30pm 22.3 22.0 12.8 55 5.4 SE 6 9 3 5 1023.8 1023.7 0.0
30/03:00pm 22.4 22.0 12.4 53 5.7 SSE 6 7 3 4 1023.7 1023.6 0.0
30/02:30pm 22.9 22.7 13.1 54 5.7 E 6 13 3 7 1023.5 1023.4 0.0
30/02:00pm 22.8 22.4 12.4 52 5.9 ENE 6 9 3 5 1023.8 1023.7 0.0
30/01:30pm 21.8 21.4 12.9 57 5.1 SE 7 11 4 6 1024.0 1023.9 0.0
30/01:00pm 22.1 21.5 12.4 54 5.5 ESE 7 17 4 9 1024.5 1024.4 0.0
30/12:30pm 21.5 21.7 14.2 63 4.3 SSE 6 11 3 6 1025.1 1025.0 0.0
30/12:00pm 21.5 21.4 14.9 66 3.9 SE 9 17 5 9 1025.8 1025.7 0.0
30/11:30am 20.8 20.8 14.2 66 3.8 SSE 7 13 4 7 1026.3 1026.2 0.0
30/11:00am 20.5 20.8 15.1 71 3.2 SSE 7 13 4 7 1026.6 1026.5 0.0
30/10:30am 19.9 19.8 14.9 73 2.9 SSE 9 19 5 10 1026.8 1026.7 0.0
30/10:00am 19.3 19.7 15.2 77 2.4 SSE 7 15 4 8 1027.3 1027.2 0.0
30/09:30am 18.4 18.7 14.9 80 2.0 SSE 7 13 4 7 1027.3 1027.2 0.0
30/09:00am 17.0 17.4 14.8 87 1.3 SSE 6 9 3 5 1027.5 1027.4 5.4
30/08:30am 15.6 15.8 14.3 92 0.7 SE 6 9 3 5 1027.4 1027.3 5.4
30/08:00am 14.4 15.2 13.8 96 0.3 SE 2 4 1 2 1027.4 1027.3 5.4
30/07:30am 12.6 13.4 12.4 99 0.1 CALM 0 0 0 0 1027.1 1027.0 5.4
30/07:00am 12.6 13.3 12.3 98 0.2 CALM 0 0 0 0 1027.0 1026.9 5.4
30/06:30am 12.4 13.0 11.9 97 0.3 CALM 0 0 0 0 1026.7 1026.6 5.4
30/06:00am 13.5 14.5 13.3 99 0.1 CALM 0 0 0 0 1026.4 1026.3 5.4
30/05:30am 13.3 13.5 13.0 98 0.2 S 4 6 2 3 1026.6 1026.5 5.4
30/05:00am 14.2 15.1 13.9 98 0.2 SE 2 4 1 2 1026.6 1026.5 5.4
30/04:30am 14.3 14.7 13.8 97 0.3 SSE 4 6 2 3 1026.5 1026.4 5.4
30/04:00am 15.1 15.9 14.8 98 0.2 ESE 4 9 2 5 1026.9 1026.8 5.4
30/03:30am 15.0 16.5 14.7 98 0.2 CALM 0 0 0 0 1027.2 1027.1 5.2
30/03:00am 15.1 16.3 14.8 98 0.2 SSW 2 4 1 2 1027.2 1027.1 5.2
30/02:30am 15.2 16.0 14.9 98 0.2 SW 4 6 2 3 1027.4 1027.3 5.0
30/02:00am 15.2 16.8 14.9 98 0.2 CALM 0 0 0 0 1027.5 1027.4 4.4
30/01:30am 15.3 16.5 15.0 98 0.2 SSW 2 4 1 2 1027.7 1027.6 4.0
30/01:00am 15.3 16.5 15.0 98 0.2 SSW 2 4 1 2 1027.8 1027.7 2.8
30/12:30am 15.3 16.9 15.0 98 0.2 CALM 0 4 0 2 1028.0 1027.9 2.2
30/12:00am 15.4 16.7 15.1 98 0.2 SW 2 4 1 2 1028.1 1028.0 2.0
 
Date/Time
EST
Tmp

°C
App
Tmp
°C
Dew
Point
°C
Rel
Hum
%
Delta-T

°C
Wind Press
QNH
hPa
Press
MSL
hPa
Rain
since
9 am
mm
Dir
 
Spd
km/h
Gust
km/h
Spd
kts
Gust
kts
29/11:30pm 15.4 17.0 14.9 97 0.3 CALM 0 0 0 0 1028.2 1028.1 1.8
29/11:00pm 15.4 17.0 14.9 97 0.3 CALM 0 0 0 0 1028.3 1028.2 1.8
29/10:30pm 15.4 16.6 14.9 97 0.3 SSW 2 4 1 2 1028.5 1028.4 1.6
29/10:00pm 15.4 16.2 14.9 97 0.3 SSE 4 6 2 3 1028.7 1028.6 1.2
29/09:30pm 15.4 15.7 14.9 97 0.3 SSE 7 15 4 8 1028.8 1028.7 1.2
29/09:00pm 15.5 16.0 15.0 97 0.3 SE 6 9 3 5 1028.8 1028.7 0.4
29/08:30pm 15.1 16.1 14.3 95 0.5 SE 2 6 1 3 1028.6 1028.5 0.0
29/08:00pm 15.2 16.4 13.9 92 0.7 CALM 0 0 0 0 1028.4 1028.3 0.0
29/07:30pm 15.6 16.1 14.1 91 0.9 SE 4 6 2 3 1028.2 1028.1 0.0
29/07:00pm 15.9 16.8 14.1 89 1.0 SE 2 6 1 3 1028.0 1027.9 0.0
29/06:30pm 16.3 16.8 14.0 86 1.3 SSE 4 7 2 4 1027.8 1027.7 0.0
29/06:00pm 16.5 16.6 14.0 85 1.4 SSE 6 9 3 5 1027.5 1027.4 0.0
29/05:30pm 16.7 16.2 13.8 83 1.6 SSE 9 13 5 7 1027.1 1027.0 0.0
29/05:00pm 17.8 16.5 13.7 77 2.3 SSE 13 20 7 11 1026.8 1026.7 0.0
29/04:30pm 18.5 18.5 15.2 81 1.9 SSE 9 15 5 8 1026.5 1026.4 0.0
29/04:00pm 19.0 19.5 15.1 78 2.3 SSE 6 9 3 5 1026.4 1026.3 0.0

Latest Capital City Observations: Canberra | Sydney | Melbourne | Brisbane | Adelaide | Perth | Hobart | Darwin

Other Formats:

Comma delimited format used in spreadsheet applications
http://www.bom.gov.au/fwo/IDQ60901/IDQ60901.94566.axf

JavaScript Object Notation format (JSON) in row-major order
http://www.bom.gov.au/fwo/IDQ60901/IDQ60901.94566.json